Time;durP1;ratioP1;P1;durP2;ratioP2;P2;SDS_P1;SDS_P2;PMS_P1;PMS_P2;Temp;Humidity;BMP_temperature;BMP_pressure;BME280_temperature;BME280_humidity;BME280_pressure;Samples;Min_cycle;Max_cycle;Signal;HPM_P1;HPM_P2
2023/10/15 00:00:13;;;;;;;7.78;1.42;;;8.70;99.90;;;;;;5072111;28;20044;-72
2023/10/15 00:02:41;;;;;;;3.92;0.95;;;8.70;99.90;;;;;;5072322;28;20037;-72
2023/10/15 00:05:08;;;;;;;6.13;1.23;;;8.60;99.90;;;;;;5071929;28;20413;-72
2023/10/15 00:07:34;;;;;;;6.60;1.30;;;8.60;99.90;;;;;;5072021;28;20047;-72
2023/10/15 00:10:00;;;;;;;4.75;1.00;;;8.60;99.90;;;;;;5071929;28;20036;-72
2023/10/15 00:12:25;;;;;;;7.95;1.20;;;8.60;99.90;;;;;;5071937;28;20062;-72
2023/10/15 00:14:51;;;;;;;8.18;1.17;;;8.60;99.90;;;;;;5071779;28;20079;-71
2023/10/15 00:17:17;;;;;;;4.07;0.90;;;8.60;99.90;;;;;;5071961;28;20063;-71
2023/10/15 00:19:42;;;;;;;4.80;0.85;;;8.50;99.90;;;;;;5071891;28;20416;-72
2023/10/15 00:22:08;;;;;;;4.68;0.77;;;8.50;99.90;;;;;;5071797;28;20043;-72
2023/10/15 00:24:33;;;;;;;8.35;0.80;;;8.60;99.90;;;;;;5071803;28;20124;-72
2023/10/15 00:26:59;;;;;;;3.90;0.70;;;8.50;99.90;;;;;;5072009;28;20048;-72
2023/10/15 00:29:25;;;;;;;6.40;0.85;;;8.60;99.90;;;;;;5072034;28;20489;-72
2023/10/15 00:31:51;;;;;;;4.50;0.98;;;8.60;99.90;;;;;;5071746;28;20055;-72
2023/10/15 00:34:17;;;;;;;8.13;0.90;;;8.60;99.90;;;;;;5071673;28;20040;-72
2023/10/15 00:36:43;;;;;;;5.57;1.17;;;8.60;99.90;;;;;;5071625;28;20048;-72
2023/10/15 00:39:19;;;;;;;4.95;1.05;;;8.60;99.90;;;;;;5071674;28;20409;-72
2023/10/15 00:41:47;;;;;;;5.47;1.00;;;8.60;99.90;;;;;;5071717;28;20071;-72
2023/10/15 00:44:14;;;;;;;5.07;1.13;;;8.70;99.90;;;;;;5071640;28;20079;-72
2023/10/15 00:46:41;;;;;;;4.75;0.95;;;8.70;99.90;;;;;;5071773;28;20037;-72
2023/10/15 00:49:14;;;;;;;2.97;0.50;;;8.70;99.90;;;;;;5072658;28;20044;-72
2023/10/15 00:51:41;;;;;;;9.18;1.13;;;8.70;99.90;;;;;;5075889;28;20059;-72
2023/10/15 00:54:11;;;;;;;5.50;0.80;;;8.70;99.90;;;;;;5075425;28;20036;-72
2023/10/15 00:56:38;;;;;;;3.78;0.82;;;8.60;99.90;;;;;;5075711;28;20032;-72
2023/10/15 00:59:16;;;;;;;7.47;0.90;;;8.60;99.90;;;;;;5075427;28;20115;-72
2023/10/15 01:04:31;;;;;;;2.88;0.80;;;8.60;99.90;;;;;;5075316;28;20398;-72
2023/10/15 01:07:00;;;;;;;6.68;1.02;;;8.60;99.90;;;;;;5075266;28;20493;-72
2023/10/15 01:09:29;;;;;;;4.25;0.50;;;8.60;99.90;;;;;;5075261;28;20094;-72
2023/10/15 01:11:56;;;;;;;4.38;0.93;;;8.60;99.90;;;;;;5075404;28;20129;-72
2023/10/15 01:14:33;;;;;;;5.00;0.80;;;8.60;99.90;;;;;;5075001;28;20051;-72
2023/10/15 01:16:59;;;;;;;6.90;1.02;;;8.60;99.90;;;;;;5074944;28;20040;-72
2023/10/15 01:19:32;;;;;;;4.25;1.08;;;8.50;99.90;;;;;;5075049;28;20051;-72
2023/10/15 01:22:07;;;;;;;;;;;8.50;99.90;;;;;;5075449;28;20123;-72
2023/10/15 01:24:37;;;;;;;6.25;0.88;;;8.40;99.90;;;;;;5075195;28;19920;-72
2023/10/15 01:27:09;;;;;;;5.03;0.70;;;8.30;99.90;;;;;;5074830;28;20123;-72
2023/10/15 01:29:40;;;;;;;4.57;1.13;;;8.30;99.90;;;;;;5075261;28;20072;-72
2023/10/15 01:32:10;;;;;;;5.28;0.60;;;8.40;99.90;;;;;;5074794;28;20063;-72
2023/10/15 01:34:45;;;;;;;2.88;0.80;;;8.40;99.90;;;;;;5074929;28;20075;-72
2023/10/15 01:37:21;;;;;;;3.38;0.60;;;8.40;99.90;;;;;;5058286;28;20048;-72
2023/10/15 01:39:52;;;;;;;4.43;1.00;;;8.40;99.90;;;;;;5074735;28;20037;-72
2023/10/15 01:45:08;;;;;;;4.45;0.98;;;8.40;99.90;;;;;;5074488;28;20048;-72
2023/10/15 01:47:35;;;;;;;3.63;0.80;;;8.30;99.90;;;;;;5074481;28;20040;-72
2023/10/15 01:50:08;;;;;;;4.88;0.90;;;8.30;99.90;;;;;;5074478;28;20084;-72
2023/10/15 01:52:39;;;;;;;5.82;0.68;;;8.20;99.90;;;;;;5074723;28;20048;-72
2023/10/15 01:55:06;;;;;;;3.63;0.80;;;8.20;99.90;;;;;;5074240;28;20041;-72
2023/10/15 01:57:32;;;;;;;5.28;0.77;;;8.10;99.90;;;;;;5074282;28;20033;-72
2023/10/15 02:00:33;;;;;;;3.95;0.75;;;8.10;99.90;;;;;;5057599;28;20413;-72
2023/10/15 02:03:00;;;;;;;4.22;0.80;;;8.00;99.90;;;;;;5074233;28;20040;-72
2023/10/15 02:05:29;;;;;;;6.00;1.08;;;7.90;99.90;;;;;;5074395;28;20083;-72
2023/10/15 02:07:56;;;;;;;5.13;0.90;;;7.90;99.90;;;;;;5074106;28;20412;-72
2023/10/15 02:10:22;;;;;;;5.75;1.08;;;7.90;99.90;;;;;;5074067;28;20105;-72
2023/10/15 02:12:59;;;;;;;5.05;0.77;;;7.90;99.90;;;;;;5074281;28;20048;-72
2023/10/15 02:15:26;;;;;;;5.97;0.85;;;7.90;99.90;;;;;;5073867;28;20417;-72
2023/10/15 02:17:54;;;;;;;5.40;0.82;;;7.80;99.90;;;;;;5073854;28;20123;-72
2023/10/15 02:20:44;;;;;;;5.60;0.93;;;7.80;99.90;;;;;;5073915;28;20142;-72
2023/10/15 02:23:09;;;;;;;2.78;0.60;;;7.80;99.90;;;;;;5073900;28;20043;-72
2023/10/15 02:25:41;;;;;;;5.53;0.90;;;7.70;99.90;;;;;;5073747;28;20040;-72
2023/10/15 02:28:09;;;;;;;6.93;1.48;;;7.80;99.90;;;;;;5073823;28;20505;-72
2023/10/15 02:30:35;;;;;;;3.97;0.85;;;7.80;99.90;;;;;;5073995;28;20080;-72
2023/10/15 02:33:01;;;;;;;5.75;1.30;;;7.80;99.90;;;;;;5073931;28;20041;-72
2023/10/15 02:35:38;;;;;;;4.10;0.70;;;7.90;99.90;;;;;;5073512;28;20033;-72
2023/10/15 02:38:09;;;;;;;5.47;0.98;;;7.90;99.90;;;;;;5073856;28;20040;-72
2023/10/15 02:40:38;;;;;;;3.78;0.75;;;7.90;99.90;;;;;;5073547;28;20562;-72
2023/10/15 02:43:06;;;;;;;3.75;1.00;;;7.90;99.90;;;;;;5073492;28;20556;-72
2023/10/15 02:45:43;;;;;;;4.78;0.95;;;7.90;99.90;;;;;;5073382;28;20048;-72
2023/10/15 02:48:19;;;;;;;4.07;0.60;;;8.00;99.90;;;;;;5073661;28;20041;-72
2023/10/15 02:50:58;;;;;;;5.80;0.90;;;8.00;99.90;;;;;;5073380;28;20101;-72
2023/10/15 02:53:23;;;;;;;6.80;1.30;;;7.90;99.90;;;;;;5056580;28;20040;-72
2023/10/15 02:55:49;;;;;;;4.60;0.80;;;7.90;99.90;;;;;;5073383;28;20032;-72
2023/10/15 02:58:16;;;;;;;6.43;0.90;;;7.90;99.90;;;;;;5073424;28;20062;-72
2023/10/15 03:00:42;;;;;;;3.13;0.75;;;7.90;99.90;;;;;;5073097;28;20102;-72
2023/10/15 03:03:08;;;;;;;4.10;0.85;;;7.90;99.90;;;;;;5073335;28;20036;-72
2023/10/15 03:05:39;;;;;;;7.15;1.05;;;7.80;99.90;;;;;;5072957;28;20047;-72
2023/10/15 03:08:05;;;;;;;3.35;0.65;;;7.90;99.90;;;;;;5073257;28;20148;-72
2023/10/15 03:10:55;;;;;;;3.40;0.70;;;7.80;99.90;;;;;;5072964;28;20480;-72
2023/10/15 03:13:21;;;;;;;4.82;0.75;;;7.80;99.90;;;;;;5072100;28;20048;-72
2023/10/15 03:15:49;;;;;;;3.80;0.90;;;7.70;99.90;;;;;;5072712;28;20043;-72
2023/10/15 03:18:24;;;;;;;5.38;0.90;;;7.70;99.90;;;;;;5072810;28;20040;-72
2023/10/15 03:21:09;;;;;;;5.63;1.05;;;7.60;99.90;;;;;;5072736;28;20482;-72
2023/10/15 03:23:35;;;;;;;6.40;0.77;;;7.60;99.90;;;;;;5072674;28;20048;-72
2023/10/15 03:26:01;;;;;;;5.82;1.10;;;7.60;99.90;;;;;;5072791;28;20144;-72
2023/10/15 03:28:26;;;;;;;4.40;1.33;;;7.50;99.90;;;;;;5072802;28;20098;-72
2023/10/15 03:30:55;;;;;;;6.85;1.13;;;7.50;99.90;;;;;;5056167;28;20579;-72
2023/10/15 03:33:23;;;;;;;7.20;0.95;;;7.50;99.90;;;;;;5072440;28;20080;-72
2023/10/15 03:35:54;;;;;;;6.38;1.08;;;7.40;99.90;;;;;;5055870;28;20409;-72
2023/10/15 03:38:24;;;;;;;6.72;1.02;;;7.40;99.90;;;;;;5072441;28;20037;-72
2023/10/15 03:41:10;;;;;;;3.92;0.80;;;7.40;99.90;;;;;;5072575;28;20093;-72
2023/10/15 03:43:36;;;;;;;4.75;1.13;;;7.30;99.90;;;;;;5072599;28;20142;-72
2023/10/15 03:46:16;;;;;;;4.95;0.90;;;7.30;99.90;;;;;;5072221;28;20512;-72
2023/10/15 03:48:47;;;;;;;8.02;1.02;;;7.30;99.90;;;;;;5072196;28;20080;-72
2023/10/15 03:51:16;;;;;;;5.50;1.17;;;7.20;99.90;;;;;;5072214;28;20480;-72
2023/10/15 03:53:43;;;;;;;3.85;0.90;;;7.20;99.90;;;;;;5072080;28;20063;-72
2023/10/15 03:56:09;;;;;;;4.85;1.10;;;7.20;99.90;;;;;;5072011;28;20421;-72
2023/10/15 03:58:34;;;;;;;4.35;0.95;;;7.10;99.90;;;;;;5072299;28;20043;-72
2023/10/15 04:01:16;;;;;;;4.60;0.90;;;7.20;99.90;;;;;;5072319;28;20466;-72
2023/10/15 04:03:43;;;;;;;6.35;1.05;;;7.20;99.90;;;;;;5072006;28;20086;-72
2023/10/15 04:06:10;;;;;;;5.93;1.38;;;7.20;99.90;;;;;;5072158;28;20113;-72
2023/10/15 04:08:39;;;;;;;7.20;0.85;;;7.10;99.90;;;;;;5055316;28;20127;-72
2023/10/15 04:11:08;;;;;;;4.85;0.98;;;7.10;99.90;;;;;;5071926;28;20048;-72
2023/10/15 04:13:35;;;;;;;4.25;0.60;;;7.10;99.90;;;;;;5071841;28;20040;-72
2023/10/15 04:16:00;;;;;;;3.30;0.60;;;7.20;99.90;;;;;;5071806;28;20504;-72
2023/10/15 04:18:26;;;;;;;4.85;0.75;;;7.20;99.90;;;;;;5071738;28;20032;-72
2023/10/15 04:20:53;;;;;;;4.85;1.42;;;7.20;99.90;;;;;;5072101;28;20128;-72
2023/10/15 04:23:31;;;;;;;5.03;0.63;;;7.20;99.90;;;;;;5071906;28;20042;-72
2023/10/15 04:26:09;;;;;;;5.97;0.75;;;7.20;99.90;;;;;;5071836;28;20041;-72
2023/10/15 04:28:36;;;;;;;5.18;0.80;;;7.30;99.90;;;;;;5071888;28;20116;-72
2023/10/15 04:31:20;;;;;;;3.13;0.70;;;7.30;99.90;;;;;;5055071;28;20090;-72
2023/10/15 04:33:45;;;;;;;5.65;1.10;;;7.30;99.90;;;;;;5071641;28;20128;-72
2023/10/15 04:36:11;;;;;;;4.97;0.80;;;7.30;99.90;;;;;;5071634;28;20119;-72
2023/10/15 04:38:38;;;;;;;3.95;0.70;;;7.30;99.90;;;;;;5071664;28;20123;-72
2023/10/15 04:41:04;;;;;;;3.05;0.50;;;7.30;99.90;;;;;;5071651;28;20037;-72
2023/10/15 04:43:40;;;;;;;2.30;0.52;;;7.30;99.90;;;;;;5071880;28;20067;-72
2023/10/15 04:46:07;;;;;;;6.20;0.65;;;7.30;99.90;;;;;;5071823;28;20080;-72
2023/10/15 04:48:36;;;;;;;2.03;0.30;;;7.30;99.90;;;;;;5071597;28;20045;-72
2023/10/15 04:51:12;;;;;;;3.28;0.57;;;7.30;99.90;;;;;;5071508;28;20467;-72
2023/10/15 04:53:42;;;;;;;3.08;0.82;;;7.30;99.90;;;;;;5071731;28;20045;-72
2023/10/15 04:56:08;;;;;;;4.07;0.68;;;7.30;99.90;;;;;;5071449;28;20068;-72
2023/10/15 04:58:34;;;;;;;2.00;0.40;;;7.30;99.90;;;;;;5071496;28;20047;-72
2023/10/15 05:01:01;;;;;;;5.03;0.80;;;7.30;99.90;;;;;;5071739;28;20040;-72
2023/10/15 05:03:26;;;;;;;4.53;0.65;;;7.30;99.90;;;;;;5071407;28;20077;-72
2023/10/15 05:05:53;;;;;;;2.63;0.50;;;7.20;99.90;;;;;;5071610;28;20033;-72
2023/10/15 05:08:19;;;;;;;3.78;0.57;;;7.30;99.90;;;;;;5071365;28;20040;-72
2023/10/15 05:10:52;;;;;;;4.00;0.70;;;7.30;99.90;;;;;;5071321;28;20047;-72
2023/10/15 05:13:19;;;;;;;5.10;0.85;;;7.30;99.90;;;;;;5071411;28;20041;-72
2023/10/15 05:15:47;;;;;;;4.10;0.50;;;7.30;99.90;;;;;;5071472;28;20063;-72
2023/10/15 05:18:15;;;;;;;7.13;0.80;;;7.30;99.90;;;;;;5071430;28;20040;-72
2023/10/15 05:20:42;;;;;;;4.88;0.70;;;7.30;99.90;;;;;;5071311;28;20044;-72
2023/10/15 05:23:08;;;;;;;3.65;0.60;;;7.30;99.90;;;;;;5054587;28;20039;-72
2023/10/15 05:25:33;;;;;;;3.38;0.95;;;7.30;99.90;;;;;;5071206;28;20119;-72
2023/10/15 05:28:02;;;;;;;3.60;0.70;;;7.30;99.90;;;;;;5054566;28;20043;-72
2023/10/15 05:30:27;;;;;;;5.50;0.85;;;7.30;99.90;;;;;;5071184;28;20048;-72
2023/10/15 05:32:53;;;;;;;3.90;0.68;;;7.40;99.90;;;;;;5071173;28;20140;-72
2023/10/15 05:35:18;;;;;;;2.38;0.50;;;7.30;99.90;;;;;;5071029;28;20039;-72
2023/10/15 05:37:45;;;;;;;2.50;0.60;;;7.30;99.90;;;;;;5074712;28;20450;-72
2023/10/15 05:40:12;;;;;;;2.05;0.40;;;7.30;99.90;;;;;;5074663;28;20032;-72
2023/10/15 05:42:38;;;;;;;4.57;0.60;;;7.30;99.90;;;;;;5074899;28;20131;-72
2023/10/15 05:45:07;;;;;;;2.90;0.50;;;7.40;99.90;;;;;;5074796;28;20089;-72
2023/10/15 05:47:36;;;;;;;2.83;0.57;;;7.30;99.90;;;;;;5074530;28;20053;-72
2023/10/15 05:50:06;;;;;;;2.90;0.63;;;7.40;99.90;;;;;;5074757;28;20036;-72
2023/10/15 05:52:32;;;;;;;4.80;0.68;;;7.40;99.90;;;;;;5074460;28;20048;-72
2023/10/15 05:55:00;;;;;;;2.05;0.40;;;7.40;99.90;;;;;;5074254;28;20509;-72
2023/10/15 05:57:25;;;;;;;1.98;0.38;;;7.40;99.90;;;;;;5074373;28;20048;-72
2023/10/15 05:59:51;;;;;;;4.13;0.70;;;7.30;99.90;;;;;;5074598;28;20127;-72
2023/10/15 06:02:17;;;;;;;1.95;0.43;;;7.30;99.90;;;;;;5074280;28;20524;-72
2023/10/15 06:04:43;;;;;;;2.03;0.68;;;7.30;99.90;;;;;;5074206;28;20044;-72
2023/10/15 06:07:10;;;;;;;4.57;0.82;;;7.30;99.90;;;;;;5074367;28;20063;-72
2023/10/15 06:09:36;;;;;;;3.80;0.50;;;7.30;99.90;;;;;;5074090;28;20497;-72
2023/10/15 06:12:02;;;;;;;2.67;0.50;;;7.30;99.90;;;;;;5074352;28;20106;-72
2023/10/15 06:14:30;;;;;;;5.07;0.82;;;7.30;99.90;;;;;;5073972;28;20455;-72
2023/10/15 06:16:59;;;;;;;3.25;0.60;;;7.30;99.90;;;;;;5073793;28;20036;-72
2023/10/15 06:19:25;;;;;;;2.95;0.40;;;7.30;99.90;;;;;;5074247;28;20102;-72
2023/10/15 06:21:51;;;;;;;2.42;0.40;;;7.30;99.90;;;;;;5074166;28;20493;-72
2023/10/15 06:24:17;;;;;;;6.00;0.60;;;7.30;99.90;;;;;;5073896;28;20063;-72
2023/10/15 06:26:44;;;;;;;3.25;0.50;;;7.20;99.90;;;;;;5074000;28;20040;-72
2023/10/15 06:29:10;;;;;;;1.90;0.38;;;7.20;99.90;;;;;;5073843;28;20090;-72
2023/10/15 06:31:39;;;;;;;3.42;0.70;;;7.20;99.90;;;;;;5073792;28;20040;-72
2023/10/15 06:34:06;;;;;;;5.35;0.50;;;7.20;99.90;;;;;;5073604;28;20076;-72
2023/10/15 06:36:32;;;;;;;2.13;0.40;;;7.20;99.90;;;;;;5073832;28;20044;-72
2023/10/15 06:38:58;;;;;;;1.98;0.40;;;7.20;99.90;;;;;;5073648;28;20552;-72
2023/10/15 06:41:24;;;;;;;3.28;0.32;;;7.20;99.90;;;;;;5073831;28;20052;-72
2023/10/15 06:43:50;;;;;;;1.55;0.30;;;7.20;99.90;;;;;;5073494;28;20056;-72
2023/10/15 06:46:16;;;;;;;1.25;0.20;;;7.20;99.90;;;;;;5073364;28;20048;-72
2023/10/15 06:48:42;;;;;;;2.38;0.50;;;7.20;99.90;;;;;;5073111;28;20040;-72
2023/10/15 06:51:09;;;;;;;1.50;0.30;;;7.30;99.90;;;;;;5073641;28;20063;-72
2023/10/15 06:53:35;;;;;;;4.32;0.40;;;7.30;99.90;;;;;;5073226;28;20413;-72
2023/10/15 06:56:06;;;;;;;1.77;0.30;;;7.20;99.90;;;;;;5073164;28;20035;-72
2023/10/15 06:58:37;;;;;;;2.67;0.82;;;7.30;99.90;;;;;;5073424;28;20049;-72
2023/10/15 07:01:06;;;;;;;3.30;0.30;;;7.20;99.90;;;;;;5073426;28;20409;-72
2023/10/15 07:03:33;;;;;;;1.05;0.30;;;7.20;99.90;;;;;;5073051;28;20072;-72
2023/10/15 07:05:58;;;;;;;1.73;0.40;;;7.20;99.90;;;;;;5072958;28;20044;-72
2023/10/15 07:08:25;;;;;;;1.40;0.30;;;7.20;99.90;;;;;;5073233;28;20043;-72
2023/10/15 07:10:50;;;;;;;3.25;0.65;;;7.20;99.90;;;;;;5072960;28;20072;-72
2023/10/15 07:13:18;;;;;;;2.25;0.50;;;7.20;99.90;;;;;;5073151;28;20071;-72
2023/10/15 07:15:45;;;;;;;1.17;0.20;;;7.20;99.90;;;;;;5072731;28;20098;-72
2023/10/15 07:18:11;;;;;;;2.40;0.40;;;7.20;99.90;;;;;;5072675;28;20390;-72
2023/10/15 07:20:37;;;;;;;2.92;0.38;;;7.20;99.90;;;;;;5072746;28;20036;-72
2023/10/15 07:23:03;;;;;;;1.85;0.30;;;7.20;99.90;;;;;;5072720;28;20043;-72
2023/10/15 07:25:28;;;;;;;4.07;0.40;;;7.20;99.90;;;;;;5072887;28;20071;-72
2023/10/15 07:27:56;;;;;;;3.15;0.32;;;7.20;99.90;;;;;;5072616;28;20413;-72
2023/10/15 07:30:22;;;;;;;2.25;0.47;;;7.20;99.90;;;;;;5072566;28;20044;-72
2023/10/15 07:32:53;;;;;;;2.88;0.40;;;7.20;99.90;;;;;;5072534;28;20048;-72
2023/10/15 07:35:19;;;;;;;4.95;0.50;;;7.30;99.90;;;;;;5055849;28;20052;-71
2023/10/15 07:37:46;;;;;;;4.20;0.55;;;7.30;99.90;;;;;;5072747;28;20036;-72
2023/10/15 07:40:21;;;;;;;5.72;0.60;;;7.30;99.90;;;;;;5072386;28;20048;-71
2023/10/15 07:42:52;;;;;;;3.78;0.80;;;7.30;99.90;;;;;;5055789;28;20032;-72
2023/10/15 07:45:19;;;;;;;6.47;0.65;;;7.30;99.90;;;;;;5072288;28;20466;-72
2023/10/15 07:47:46;;;;;;;5.15;0.88;;;7.40;99.90;;;;;;5072301;28;20078;-72
2023/10/15 07:50:13;;;;;;;3.40;0.50;;;7.30;99.90;;;;;;5072213;28;20119;-75
2023/10/15 07:52:40;;;;;;;4.20;1.00;;;7.30;99.90;;;;;;5055545;28;20048;-76
2023/10/15 07:55:06;;;;;;;3.30;0.65;;;7.30;99.90;;;;;;5072066;28;20045;-77
2023/10/15 07:57:32;;;;;;;3.97;0.98;;;7.40;99.90;;;;;;5055455;28;20515;-76
2023/10/15 07:59:58;;;;;;;2.42;0.43;;;7.40;99.90;;;;;;5071520;28;20119;-77
2023/10/15 08:02:27;;;;;;;4.75;0.60;;;7.40;99.90;;;;;;5072089;28;20058;-76
2023/10/15 08:04:54;;;;;;;4.43;0.70;;;7.50;99.90;;;;;;5071999;28;20080;-76
2023/10/15 08:07:20;;;;;;;2.78;0.60;;;7.50;99.90;;;;;;5055425;28;20036;-77
2023/10/15 08:09:46;;;;;;;4.18;0.82;;;7.60;99.90;;;;;;5072152;28;20036;-79
2023/10/15 08:12:12;;;;;;;1.88;0.40;;;7.70;99.90;;;;;;5072952;28;20125;-78
2023/10/15 08:14:37;;;;;;;3.20;0.63;;;7.80;99.90;;;;;;5071850;28;20079;-78
2023/10/15 08:17:03;;;;;;;3.35;0.50;;;7.90;99.90;;;;;;5071988;28;20036;-77
2023/10/15 08:19:29;;;;;;;4.10;0.88;;;8.10;99.90;;;;;;5072224;28;20508;-78
2023/10/15 08:21:56;;;;;;;3.90;0.70;;;8.20;99.90;;;;;;5072171;28;20076;-77
2023/10/15 08:24:21;;;;;;;5.28;0.70;;;8.30;99.90;;;;;;5072187;28;20045;-77
2023/10/15 08:26:47;;;;;;;2.65;0.73;;;8.40;99.90;;;;;;5072583;28;20493;-80
2023/10/15 08:29:13;;;;;;;4.38;0.77;;;8.60;99.90;;;;;;5072247;28;20036;-80
2023/10/15 08:31:39;;;;;;;2.60;0.50;;;8.70;99.90;;;;;;5072259;28;20036;-81
2023/10/15 08:34:04;;;;;;;5.70;0.65;;;9.00;99.90;;;;;;5056211;28;20073;-81
2023/10/15 08:36:30;;;;;;;2.58;0.50;;;9.40;99.90;;;;;;5072440;28;20125;-80
2023/10/15 08:38:55;;;;;;;4.28;0.50;;;10.30;99.90;;;;;;5072563;28;20039;-80
2023/10/15 08:41:25;;;;;;;2.50;0.40;;;10.70;99.90;;;;;;5055598;28;20086;-81
2023/10/15 08:43:51;;;;;;;2.67;0.50;;;11.20;99.90;;;;;;5072222;28;20037;-80
2023/10/15 08:46:24;;;;;;;3.80;0.45;;;11.20;99.90;;;;;;5055403;28;20493;-79
2023/10/15 08:48:51;;;;;;;2.47;0.40;;;10.90;99.90;;;;;;5055848;28;20043;-80
2023/10/15 08:51:23;;;;;;;1.95;0.50;;;10.50;99.90;;;;;;5072379;28;20051;-79
2023/10/15 08:53:53;;;;;;;5.30;1.00;;;10.50;99.90;;;;;;5071649;28;20045;-79
2023/10/15 08:56:22;;;;;;;4.55;1.33;;;11.10;99.90;;;;;;5072022;28;20048;-79
2023/10/15 08:58:56;;;;;;;3.35;0.50;;;12.10;99.90;;;;;;5055107;28;20089;-79
2023/10/15 09:01:23;;;;;;;5.40;0.80;;;12.70;99.90;;;;;;5055446;28;20037;-79
2023/10/15 09:03:52;;;;;;;7.10;0.95;;;12.50;99.90;;;;;;5055383;28;20516;-79
2023/10/15 09:06:19;;;;;;;2.97;0.52;;;12.10;99.90;;;;;;5072044;28;20123;-79
2023/10/15 09:08:50;;;;;;;4.95;0.98;;;11.70;99.90;;;;;;5055338;28;20041;-79
2023/10/15 09:11:16;;;;;;;2.80;0.40;;;11.50;99.90;;;;;;5075335;28;20131;-79
2023/10/15 09:13:48;;;;;;;5.85;0.90;;;11.30;99.90;;;;;;5075663;28;20128;-79
2023/10/15 09:16:14;;;;;;;4.27;0.73;;;11.10;99.90;;;;;;5076161;28;20089;-79
2023/10/15 09:18:39;;;;;;;5.53;0.90;;;11.70;99.90;;;;;;5075779;28;20041;-79
2023/10/15 09:21:05;;;;;;;4.97;0.65;;;12.80;99.90;;;;;;5075337;28;20033;-78
2023/10/15 09:23:35;;;;;;;8.63;1.02;;;13.90;99.90;;;;;;5075095;28;20033;-78
2023/10/15 09:26:01;;;;;;;4.22;0.82;;;15.00;99.90;;;;;;5058315;28;20033;-77
2023/10/15 09:28:28;;;;;;;5.68;0.77;;;16.10;99.90;;;;;;5074956;28;20036;-78
2023/10/15 09:31:02;;;;;;;4.22;0.80;;;17.10;98.70;;;;;;5058536;28;20123;-78
2023/10/15 09:33:29;;;;;;;4.70;0.90;;;17.90;95.50;;;;;;5074964;28;20044;-78
2023/10/15 09:35:55;;;;;;;3.42;0.70;;;18.30;92.30;;;;;;5074728;28;20032;-78
2023/10/15 09:38:21;;;;;;;5.28;0.57;;;18.80;89.80;;;;;;5074701;28;20037;-78
2023/10/15 09:40:47;;;;;;;2.78;0.70;;;19.00;85.60;;;;;;5074756;28;20032;-78
2023/10/15 09:43:13;;;;;;;3.72;0.52;;;19.30;81.20;;;;;;5058028;28;20041;-78
2023/10/15 09:45:41;;;;;;;3.10;0.50;;;19.30;79.00;;;;;;5074546;28;20044;-77
2023/10/15 09:48:09;;;;;;;1.67;0.50;;;19.20;78.00;;;;;;5074555;28;20447;-77
2023/10/15 09:50:38;;;;;;;4.63;0.85;;;19.40;78.00;;;;;;5074933;28;20048;-76
2023/10/15 09:53:10;;;;;;;3.17;0.80;;;19.40;75.10;;;;;;5074775;28;20064;-76
2023/10/15 09:55:37;;;;;;;5.63;1.02;;;18.70;77.50;;;;;;5057639;28;20386;-77
2023/10/15 09:58:15;;;;;;;5.63;1.38;;;17.60;78.40;;;;;;5074964;28;20044;-71
2023/10/15 10:03:49;;;;;;;4.95;1.05;;;16.80;81.40;;;;;;5074866;28;20040;-71
2023/10/15 10:06:33;;;;;;;4.97;0.80;;;15.90;83.10;;;;;;5074665;28;20040;-71
2023/10/15 10:09:36;;;;;;;4.88;0.90;;;15.00;88.20;;;;;;5057648;28;20040;-72
2023/10/15 10:12:23;;;;;;;6.85;0.98;;;14.30;91.90;;;;;;5057536;28;20033;-76
2023/10/15 10:14:55;;;;;;;5.97;0.98;;;13.60;94.60;;;;;;5074211;28;20056;-76
2023/10/15 10:17:22;;;;;;;8.18;1.33;;;13.00;96.60;;;;;;5074599;28;20485;-76
2023/10/15 10:19:52;;;;;;;7.07;1.10;;;12.50;98.40;;;;;;5074064;28;20042;-76
2023/10/15 10:22:27;;;;;;;7.07;0.95;;;12.20;99.90;;;;;;5073584;28;20040;-76
2023/10/15 10:24:59;;;;;;;4.63;0.70;;;12.20;99.90;;;;;;5074336;28;20118;-76
2023/10/15 10:27:26;;;;;;;4.47;0.82;;;12.80;99.90;;;;;;5074146;28;20048;-76
2023/10/15 10:29:52;;;;;;;2.83;0.80;;;13.30;99.90;;;;;;5073840;28;20405;-74
2023/10/15 10:32:20;;;;;;;4.22;0.77;;;13.90;98.60;;;;;;5073763;28;20045;-76
2023/10/15 10:35:06;;;;;;;4.13;0.70;;;14.40;97.20;;;;;;5073614;28;20123;-76
2023/10/15 10:37:32;;;;;;;5.47;0.98;;;15.50;96.50;;;;;;5073503;28;20040;-76
2023/10/15 10:39:59;;;;;;;4.53;0.88;;;16.30;93.70;;;;;;5073592;28;20489;-76
2023/10/15 10:42:29;;;;;;;7.93;1.35;;;16.50;92.10;;;;;;5073593;28;20033;-75
2023/10/15 10:44:56;;;;;;;7.15;1.92;;;15.90;91.60;;;;;;5073403;28;20489;-75
2023/10/15 10:47:30;;;;;;;5.97;1.17;;;15.90;92.40;;;;;;5073500;28;20048;-75
2023/10/15 10:50:00;;;;;;;4.80;1.05;;;16.60;91.60;;;;;;5073488;28;20040;-75
2023/10/15 10:52:33;;;;;;;5.72;1.48;;;17.40;88.10;;;;;;5073380;28;20032;-75
2023/10/15 10:55:30;;;;;;;5.90;1.08;;;18.20;84.70;;;;;;5073331;28;20386;-76
2023/10/15 10:57:56;;;;;;;3.97;0.95;;;18.80;80.10;;;;;;5073270;28;20397;-76
2023/10/15 11:00:21;;;;;;;6.97;1.30;;;19.10;78.30;;;;;;5073554;28;20029;-75
2023/10/15 11:02:48;;;;;;;4.65;1.10;;;19.30;77.20;;;;;;5073428;28;20448;-75
2023/10/15 11:05:15;;;;;;;6.10;1.10;;;19.90;76.60;;;;;;5073150;28;20044;-75
2023/10/15 11:07:41;;;;;;;6.82;1.15;;;20.40;74.60;;;;;;5073353;28;20120;-75
2023/10/15 11:10:09;;;;;;;5.28;0.90;;;20.80;71.70;;;;;;5073401;28;20158;-75
2023/10/15 11:12:34;;;;;;;6.18;1.00;;;20.80;68.60;;;;;;5056853;28;20181;-75
2023/10/15 11:15:00;;;;;;;5.90;1.00;;;21.10;68.10;;;;;;5073018;28;20127;-75
2023/10/15 11:17:26;;;;;;;3.95;0.98;;;21.00;67.10;;;;;;5073022;28;20125;-75
2023/10/15 11:19:51;;;;;;;5.78;0.80;;;21.10;66.10;;;;;;5073398;28;20374;-75
2023/10/15 11:22:17;;;;;;;8.00;1.00;;;20.90;66.40;;;;;;5073145;28;20033;-75
2023/10/15 11:24:45;;;;;;;4.75;0.90;;;20.10;67.40;;;;;;5072716;28;20048;-75
2023/10/15 11:27:12;;;;;;;5.20;1.02;;;19.20;68.90;;;;;;5072637;28;20390;-74
2023/10/15 11:29:38;;;;;;;6.20;1.10;;;18.90;69.90;;;;;;5072568;28;20416;-75
2023/10/15 11:32:06;;;;;;;5.53;1.05;;;18.70;71.30;;;;;;5072588;28;20044;-75
2023/10/15 11:34:33;;;;;;;5.03;0.88;;;18.60;70.30;;;;;;5071570;28;20502;-75
2023/10/15 11:37:01;;;;;;;2.22;0.50;;;18.90;70.50;;;;;;5072449;28;20047;-75
2023/10/15 11:39:37;;;;;;;4.10;0.95;;;19.20;70.20;;;;;;5072444;28;20044;-75
2023/10/15 11:42:04;;;;;;;3.25;0.70;;;19.20;68.60;;;;;;5072406;28;20389;-75
2023/10/15 11:44:33;;;;;;;3.33;0.60;;;19.30;68.40;;;;;;5072368;28;20048;-75
2023/10/15 11:47:08;;;;;;;4.07;0.88;;;19.40;67.90;;;;;;5072528;28;20040;-74
2023/10/15 11:49:37;;;;;;;4.85;0.90;;;19.30;67.90;;;;;;5055637;28;20040;-74
2023/10/15 11:52:05;;;;;;;6.57;0.95;;;19.30;68.30;;;;;;5072515;28;20118;-74
2023/10/15 11:54:32;;;;;;;5.55;1.10;;;19.10;67.50;;;;;;5072225;28;20116;-74
2023/10/15 11:57:04;;;;;;;4.95;0.93;;;19.00;66.60;;;;;;5072356;28;20093;-74
2023/10/15 11:59:31;;;;;;;6.28;1.23;;;19.10;66.30;;;;;;5072913;28;20090;-74
2023/10/15 12:02:00;;;;;;;7.50;0.98;;;19.10;66.70;;;;;;5072102;28;20503;-75
2023/10/15 12:04:26;;;;;;;5.00;1.00;;;19.10;66.20;;;;;;5072540;28;20055;-75
2023/10/15 12:06:52;;;;;;;4.75;0.63;;;18.90;66.60;;;;;;5072368;28;20052;-75
2023/10/15 12:09:24;;;;;;;3.78;0.77;;;18.80;66.80;;;;;;5072313;28;20193;-75
2023/10/15 12:11:51;;;;;;;4.20;0.93;;;18.80;67.40;;;;;;5072065;28;20079;-75
2023/10/15 12:14:17;;;;;;;4.32;0.80;;;18.90;67.70;;;;;;5071895;28;20037;-75
2023/10/15 12:16:44;;;;;;;4.72;0.80;;;19.10;68.00;;;;;;5055089;28;20522;-75
2023/10/15 12:19:10;;;;;;;5.65;0.73;;;19.10;65.70;;;;;;5072186;28;20412;-75
2023/10/15 12:21:37;;;;;;;5.68;0.75;;;19.10;64.40;;;;;;5072102;28;20485;-75
2023/10/15 12:24:11;;;;;;;3.33;0.77;;;18.80;64.50;;;;;;5072117;28;20083;-75
2023/10/15 12:26:37;;;;;;;5.18;0.90;;;18.60;64.70;;;;;;5071788;28;20420;-75
2023/10/15 12:29:08;;;;;;;4.03;0.68;;;18.60;64.20;;;;;;5071841;28;20512;-78
2023/10/15 12:31:38;;;;;;;3.10;0.88;;;18.70;65.70;;;;;;5055253;28;20044;-74
2023/10/15 12:34:04;;;;;;;4.32;1.05;;;18.90;66.30;;;;;;5055177;28;20041;-74
2023/10/15 12:36:30;;;;;;;3.70;1.00;;;19.10;66.30;;;;;;5071676;28;20033;-74
2023/10/15 12:38:58;;;;;;;6.57;1.10;;;19.30;65.00;;;;;;5071725;28;20412;-74
2023/10/15 12:41:25;;;;;;;3.28;0.73;;;19.50;65.30;;;;;;5071681;28;20467;-74
2023/10/15 12:43:58;;;;;;;5.10;0.85;;;19.40;63.70;;;;;;5071957;28;20049;-74
2023/10/15 12:46:25;;;;;;;;;;;19.10;63.50;;;;;;5075356;28;20040;-74
2023/10/15 12:48:52;;;;;;;4.60;0.90;;;18.30;61.70;;;;;;5059033;28;20304;-74
2023/10/15 12:51:18;;;;;;;3.35;0.90;;;17.70;66.30;;;;;;5075670;28;20041;-74
2023/10/15 12:53:43;;;;;;;6.70;1.15;;;17.30;67.90;;;;;;5075536;28;20451;-74
2023/10/15 12:56:10;;;;;;;3.53;0.70;;;16.80;68.50;;;;;;5075809;28;20085;-74
2023/10/15 12:58:36;;;;;;;4.35;0.80;;;16.20;69.30;;;;;;5075577;28;20065;-74
2023/10/15 13:01:01;;;;;;;4.85;0.80;;;15.60;70.10;;;;;;5058869;28;20036;-74
2023/10/15 13:03:28;;;;;;;5.25;0.98;;;15.10;72.00;;;;;;5075415;28;20063;-74
2023/10/15 13:05:54;;;;;;;5.82;1.20;;;14.80;74.30;;;;;;5075596;28;20127;-74
2023/10/15 13:08:19;;;;;;;4.75;0.80;;;14.60;75.30;;;;;;5075372;28;20538;-74